Time;durP1;ratioP1;P1;durP2;ratioP2;P2;SDS_P1;SDS_P2;PMS_P1;PMS_P2;Temp;Humidity;BMP_temperature;BMP_pressure;BME280_temperature;BME280_humidity;BME280_pressure;Samples;Min_cycle;Max_cycle;Signal;HPM_P1;HPM_P2
2022/10/08 00:01:02;;;;;;;12.17;5.43;;;10.10;99.90;;;;;;4978674;28;20451;-84
2022/10/08 00:03:31;;;;;;;13.53;5.80;;;10.10;99.90;;;;;;4978575;28;20465;-84
2022/10/08 00:05:59;;;;;;;9.37;5.17;;;10.10;99.90;;;;;;4978516;28;20454;-84
2022/10/08 00:08:29;;;;;;;8.60;4.80;;;10.10;99.90;;;;;;4978584;28;20486;-84
2022/10/08 00:11:00;;;;;;;14.43;5.40;;;10.00;99.90;;;;;;4979214;28;20458;-84
2022/10/08 00:13:28;;;;;;;9.80;4.90;;;10.10;99.90;;;;;;4978193;28;20541;-83
2022/10/08 00:16:06;;;;;;;10.17;4.67;;;10.00;99.90;;;;;;4977911;28;20479;-83
2022/10/08 00:18:33;;;;;;;11.23;5.67;;;10.00;99.90;;;;;;4979340;28;20479;-84
2022/10/08 00:21:05;;;;;;;12.53;5.80;;;10.00;99.90;;;;;;4978633;28;20462;-84
2022/10/08 00:23:34;;;;;;;12.90;5.20;;;10.00;99.90;;;;;;4978564;28;20456;-83
2022/10/08 00:26:03;;;;;;;11.03;5.70;;;10.00;99.90;;;;;;4978102;28;20447;-84
2022/10/08 00:28:30;;;;;;;10.77;5.47;;;10.00;99.90;;;;;;4978373;28;20483;-83
2022/10/08 00:30:57;;;;;;;11.53;6.60;;;10.00;99.90;;;;;;4978198;28;20455;-84
2022/10/08 00:33:23;;;;;;;15.03;6.57;;;9.80;99.90;;;;;;4978305;28;20459;-84
2022/10/08 00:35:50;;;;;;;11.07;7.60;;;9.80;99.90;;;;;;4977259;28;20486;-84
2022/10/08 00:38:17;;;;;;;20.60;8.10;;;9.80;99.90;;;;;;4977871;28;20838;-84
2022/10/08 00:40:45;;;;;;;15.03;6.70;;;9.70;99.90;;;;;;4977861;28;20458;-84
2022/10/08 00:43:14;;;;;;;8.93;7.50;;;9.80;99.90;;;;;;4978336;28;20459;-84
2022/10/08 00:45:43;;;;;;;12.60;7.80;;;9.80;99.90;;;;;;4977515;28;20451;-84
2022/10/08 00:48:12;;;;;;;12.50;8.43;;;9.80;99.90;;;;;;4978153;28;20889;-84
2022/10/08 00:50:39;;;;;;;11.10;8.00;;;9.70;99.90;;;;;;4977718;28;20876;-84
2022/10/08 00:53:08;;;;;;;11.43;10.30;;;9.80;99.90;;;;;;4978517;28;20494;-84
2022/10/08 00:55:38;;;;;;;11.90;10.70;;;9.80;99.90;;;;;;4977531;28;20447;-84
2022/10/08 00:58:12;;;;;;;16.53;10.90;;;9.70;99.90;;;;;;4978205;28;20868;-84
2022/10/08 01:00:38;;;;;;;14.37;11.50;;;9.70;99.90;;;;;;4978171;28;20457;-84
2022/10/08 01:03:05;;;;;;;12.43;11.20;;;9.70;99.90;;;;;;4978428;28;20466;-84
2022/10/08 01:05:42;;;;;;;16.17;9.90;;;9.80;99.90;;;;;;4977781;28;20455;-83
2022/10/08 01:08:15;;;;;;;12.77;8.47;;;9.80;99.90;;;;;;4978492;28;21016;-83
2022/10/08 01:10:52;;;;;;;11.63;9.40;;;9.80;99.90;;;;;;4979919;28;20478;-84
2022/10/08 01:13:35;;;;;;;13.33;9.80;;;9.80;99.90;;;;;;4981258;28;20454;-84
2022/10/08 01:16:11;;;;;;;11.77;9.27;;;9.80;99.90;;;;;;4980756;28;20470;-84
2022/10/08 01:18:45;;;;;;;14.90;9.20;;;9.70;99.90;;;;;;4981320;28;20474;-84
2022/10/08 01:21:16;;;;;;;10.80;10.00;;;9.60;99.90;;;;;;4981322;28;20458;-83
2022/10/08 01:24:08;;;;;;;13.63;11.57;;;9.70;99.90;;;;;;4981755;28;20461;-83
2022/10/08 01:26:46;;;;;;;16.10;14.80;;;9.70;99.90;;;;;;4981427;28;20822;-84
2022/10/08 01:29:19;;;;;;;15.30;13.80;;;9.60;99.90;;;;;;4981654;28;20541;-84
2022/10/08 01:31:50;;;;;;;21.10;15.27;;;9.60;99.90;;;;;;4981517;28;20455;-84
2022/10/08 01:34:23;;;;;;;15.67;14.07;;;9.60;99.90;;;;;;4981158;28;20466;-83
2022/10/08 01:36:52;;;;;;;18.20;14.90;;;9.60;99.90;;;;;;4981729;28;20483;-84
2022/10/08 01:39:25;;;;;;;19.93;18.30;;;9.60;99.90;;;;;;4981273;28;20475;-84
2022/10/08 01:41:55;;;;;;;18.57;17.00;;;9.70;99.90;;;;;;4981121;28;20461;-84
2022/10/08 01:44:27;;;;;;;20.50;18.90;;;9.70;99.90;;;;;;4981176;28;20458;-84
2022/10/08 01:46:58;;;;;;;18.37;16.67;;;9.70;99.90;;;;;;4981546;28;20459;-84
2022/10/08 01:49:29;;;;;;;18.27;15.90;;;9.80;99.90;;;;;;4980826;28;20483;-83
2022/10/08 01:52:03;;;;;;;16.77;15.20;;;9.80;99.90;;;;;;4981101;28;20455;-84
2022/10/08 01:54:33;;;;;;;15.87;14.47;;;9.80;99.90;;;;;;4980494;28;20462;-84
2022/10/08 01:57:04;;;;;;;15.30;14.00;;;9.90;99.90;;;;;;4981629;28;20848;-83
2022/10/08 01:59:37;;;;;;;16.67;15.17;;;9.90;99.90;;;;;;4980712;28;20917;-84
2022/10/08 02:02:10;;;;;;;20.07;18.30;;;9.90;99.90;;;;;;4980920;28;20462;-84
2022/10/08 02:04:37;;;;;;;19.97;18.47;;;9.90;99.90;;;;;;4980816;28;20458;-83
2022/10/08 02:07:08;;;;;;;17.13;15.40;;;9.90;99.90;;;;;;4981080;28;20463;-84
2022/10/08 02:09:37;;;;;;;18.60;16.70;;;10.00;99.90;;;;;;4980470;28;20477;-84
2022/10/08 02:12:05;;;;;;;21.30;19.37;;;9.90;99.90;;;;;;4980924;28;20459;-84
2022/10/08 02:14:35;;;;;;;18.17;16.87;;;9.90;99.90;;;;;;4980536;28;20455;-83
2022/10/08 02:17:23;;;;;;;19.03;17.13;;;10.00;99.90;;;;;;4982247;28;20474;-84
2022/10/08 02:19:53;;;;;;;19.60;18.27;;;10.00;99.90;;;;;;4981922;28;20475;-84
2022/10/08 02:22:25;;;;;;;19.53;18.10;;;10.00;99.90;;;;;;4980317;28;20486;-84
2022/10/08 02:24:56;;;;;;;22.23;20.60;;;10.10;99.90;;;;;;4980713;28;20458;-84
2022/10/08 02:27:28;;;;;;;21.47;19.27;;;10.20;99.90;;;;;;4981105;28;20455;-84
2022/10/08 02:30:06;;;;;;;18.33;16.70;;;10.10;99.90;;;;;;4980793;28;20471;-84
2022/10/08 02:32:42;;;;;;;19.67;18.30;;;10.20;99.90;;;;;;4984630;28;20537;-84
2022/10/08 02:35:16;;;;;;;19.40;17.63;;;10.10;99.90;;;;;;4994900;28;20455;-83
2022/10/08 02:37:50;;;;;;;20.60;19.10;;;10.20;99.90;;;;;;4996294;28;20479;-83
2022/10/08 02:40:20;;;;;;;19.33;18.00;;;10.20;99.90;;;;;;4997014;28;20466;-83
2022/10/08 02:42:52;;;;;;;19.43;17.87;;;10.20;99.90;;;;;;4997283;28;20486;-83
2022/10/08 02:45:27;;;;;;;23.40;21.20;;;10.30;99.90;;;;;;4982377;28;20459;-84
2022/10/08 02:47:59;;;;;;;23.83;22.10;;;10.30;99.90;;;;;;4983096;28;20459;-84
2022/10/08 02:50:29;;;;;;;22.30;20.47;;;10.40;99.90;;;;;;4981116;28;20463;-83
2022/10/08 02:52:59;;;;;;;19.23;17.57;;;10.40;99.90;;;;;;4981323;28;20469;-84
2022/10/08 02:55:34;;;;;;;15.07;13.67;;;10.40;99.90;;;;;;4980041;28;20459;-84
2022/10/08 02:58:05;;;;;;;15.27;13.93;;;10.40;99.90;;;;;;4980343;28;20482;-83
2022/10/08 03:00:37;;;;;;;15.57;14.03;;;10.50;99.90;;;;;;4980447;28;20554;-84
2022/10/08 03:03:12;;;;;;;20.17;18.63;;;10.50;99.90;;;;;;4980172;28;20459;-84
2022/10/08 03:05:41;;;;;;;19.20;16.30;;;10.40;99.90;;;;;;4979209;28;20842;-84
2022/10/08 03:08:11;;;;;;;15.33;13.80;;;10.50;99.90;;;;;;4979438;28;20876;-84
2022/10/08 03:10:43;;;;;;;15.80;14.20;;;10.40;99.90;;;;;;4979561;28;20451;-84
2022/10/08 03:13:11;;;;;;;15.23;13.87;;;10.50;99.90;;;;;;4979597;28;20474;-84
2022/10/08 03:15:40;;;;;;;16.63;15.00;;;10.50;99.90;;;;;;4979684;28;20461;-83
2022/10/08 03:18:10;;;;;;;18.17;16.37;;;10.50;99.90;;;;;;4978691;28;20474;-84
2022/10/08 03:20:44;;;;;;;18.87;14.30;;;10.60;99.90;;;;;;4978916;28;20455;-83
2022/10/08 03:23:11;;;;;;;16.93;12.80;;;10.70;99.90;;;;;;4978971;28;20455;-84
2022/10/08 03:25:44;;;;;;;16.23;12.53;;;10.70;99.90;;;;;;4978541;28;20460;-84
2022/10/08 03:28:11;;;;;;;14.77;13.63;;;10.80;99.90;;;;;;4979259;28;20500;-84
2022/10/08 03:30:39;;;;;;;18.53;17.23;;;10.80;99.90;;;;;;4978849;28;20451;-84
2022/10/08 03:33:06;;;;;;;20.27;18.90;;;10.80;99.90;;;;;;4978323;28;20466;-84
2022/10/08 03:35:32;;;;;;;24.37;22.30;;;10.90;99.90;;;;;;4978021;28;20458;-84
2022/10/08 03:37:59;;;;;;;29.47;28.07;;;11.00;99.90;;;;;;4977484;28;20479;-85
2022/10/08 03:40:26;;;;;;;47.73;44.57;;;11.00;99.90;;;;;;4977895;28;20952;-84
2022/10/08 03:42:53;;;;;;;75.23;71.53;;;11.20;99.90;;;;;;4977891;28;20451;-84
2022/10/08 03:45:19;;;;;;;112.07;107.50;;;11.30;99.90;;;;;;4977420;28;20459;-83
2022/10/08 03:47:51;;;;;;;163.70;156.90;;;11.40;99.90;;;;;;4977672;28;20956;-84
2022/10/08 03:50:19;;;;;;;164.60;158.50;;;11.50;99.90;;;;;;4977992;28;20521;-84
2022/10/08 03:52:45;;;;;;;159.63;153.23;;;11.60;99.90;;;;;;4977581;28;20557;-83
2022/10/08 03:55:12;;;;;;;156.70;150.63;;;11.70;99.90;;;;;;4977836;28;20459;-83
2022/10/08 03:57:39;;;;;;;170.53;163.57;;;11.70;99.90;;;;;;4977627;28;20483;-84
2022/10/08 04:00:06;;;;;;;204.90;197.00;;;11.70;99.90;;;;;;4977394;28;20482;-84
2022/10/08 04:02:33;;;;;;;241.30;232.07;;;11.70;99.90;;;;;;4976931;28;20968;-84
2022/10/08 04:05:01;;;;;;;270.47;260.50;;;11.70;99.90;;;;;;4958945;28;20834;-84
2022/10/08 04:07:28;;;;;;;342.20;329.50;;;11.70;99.90;;;;;;4958538;29;20976;-84
2022/10/08 04:09:55;;;;;;;393.40;379.20;;;11.50;99.90;;;;;;4977259;28;20470;-83
2022/10/08 04:12:22;;;;;;;498.60;478.53;;;11.50;99.90;;;;;;4978268;28;20938;-83
2022/10/08 04:14:51;;;;;;;547.80;525.00;;;11.40;99.90;;;;;;4977504;28;20455;-84
2022/10/08 04:17:18;;;;;;;561.83;539.47;;;11.40;99.90;;;;;;4978202;28;20999;-84
2022/10/08 04:19:45;;;;;;;623.63;597.10;;;11.40;99.90;;;;;;4976561;28;20471;-84
2022/10/08 04:22:13;;;;;;;655.03;626.83;;;11.40;99.90;;;;;;4978002;28;20451;-87
2022/10/08 04:24:39;;;;;;;696.70;664.90;;;11.40;99.90;;;;;;4978367;28;20451;-86
2022/10/08 04:27:06;;;;;;;710.77;675.83;;;11.40;99.90;;;;;;4978371;28;20459;-86
2022/10/08 04:29:35;;;;;;;753.67;716.20;;;11.40;99.90;;;;;;4978546;28;20494;-84
2022/10/08 04:32:02;;;;;;;797.33;754.90;;;11.40;99.90;;;;;;4977877;28;20470;-84
2022/10/08 04:34:32;;;;;;;784.00;743.10;;;11.50;99.90;;;;;;4977691;28;20458;-83
2022/10/08 04:36:58;;;;;;;794.73;750.73;;;11.40;99.90;;;;;;4976485;28;20459;-84
2022/10/08 04:39:26;;;;;;;810.30;764.47;;;11.50;99.90;;;;;;4974623;28;20470;-84
2022/10/08 04:41:53;;;;;;;844.50;793.80;;;11.40;99.90;;;;;;4975974;28;20462;-84
2022/10/08 04:44:20;;;;;;;821.47;773.67;;;11.40;99.90;;;;;;4973199;28;20533;-84
2022/10/08 04:46:47;;;;;;;847.97;797.07;;;11.40;99.90;;;;;;4982366;28;20845;-84
2022/10/08 04:49:13;;;;;;;848.77;796.87;;;11.30;99.90;;;;;;4981347;28;20482;-84
2022/10/08 04:51:40;;;;;;;839.87;789.07;;;11.30;99.90;;;;;;4979633;28;20960;-84
2022/10/08 04:54:10;;;;;;;859.00;805.30;;;11.30;99.90;;;;;;4979687;28;20455;-85
2022/10/08 04:56:38;;;;;;;857.97;803.87;;;11.30;99.90;;;;;;4979532;28;20455;-85
2022/10/08 04:59:06;;;;;;;853.73;799.73;;;11.30;99.90;;;;;;4979802;28;20595;-84
2022/10/08 05:01:33;;;;;;;855.63;799.17;;;11.30;99.90;;;;;;4980731;28;20853;-84
2022/10/08 05:04:02;;;;;;;875.17;812.93;;;11.20;99.90;;;;;;4980473;28;20454;-83
2022/10/08 05:06:31;;;;;;;849.27;792.07;;;11.20;99.90;;;;;;4981656;28;20948;-85
2022/10/08 05:09:01;;;;;;;888.63;826.77;;;11.20;99.90;;;;;;4983410;28;20474;-84
2022/10/08 05:11:29;;;;;;;894.50;828.80;;;11.10;99.90;;;;;;4978832;28;20459;-84
2022/10/08 05:14:00;;;;;;;890.77;825.23;;;11.10;99.90;;;;;;4979743;28;20827;-84
2022/10/08 05:16:31;;;;;;;887.13;820.67;;;11.20;99.90;;;;;;4980784;28;20463;-81
2022/10/08 05:19:04;;;;;;;880.67;813.50;;;11.20;99.90;;;;;;4977965;28;20775;-84
2022/10/08 05:21:33;;;;;;;884.20;814.87;;;11.20;99.90;;;;;;4980100;28;20946;-84
2022/10/08 05:24:03;;;;;;;878.37;809.27;;;11.20;99.90;;;;;;4979924;28;20457;-83
2022/10/08 05:26:32;;;;;;;874.30;804.30;;;11.20;99.90;;;;;;4977278;28;20454;-84
2022/10/08 05:29:00;;;;;;;869.07;799.80;;;11.20;99.90;;;;;;4979675;28;20475;-84
2022/10/08 05:31:29;;;;;;;883.57;813.57;;;11.20;99.90;;;;;;4980045;28;20458;-84
2022/10/08 05:33:57;;;;;;;876.97;806.50;;;11.20;99.90;;;;;;4980610;28;20462;-84
2022/10/08 05:36:27;;;;;;;865.90;797.67;;;11.30;99.90;;;;;;4979159;28;20473;-83
2022/10/08 05:38:59;;;;;;;870.53;802.40;;;11.30;99.90;;;;;;4980809;28;20487;-83
2022/10/08 05:41:30;;;;;;;879.00;810.03;;;11.20;99.90;;;;;;4980200;28;20850;-83
2022/10/08 05:44:00;;;;;;;879.23;811.33;;;11.20;99.90;;;;;;4979861;28;20975;-83
2022/10/08 05:46:30;;;;;;;866.47;798.60;;;11.20;99.90;;;;;;4962575;28;20475;-83
2022/10/08 05:48:59;;;;;;;863.40;795.10;;;11.20;99.90;;;;;;4975630;28;20988;-83
2022/10/08 05:51:29;;;;;;;864.27;794.80;;;11.20;99.90;;;;;;4978393;28;20971;-82
2022/10/08 05:53:56;;;;;;;863.77;794.30;;;11.20;99.90;;;;;;4980151;28;20975;-84
2022/10/08 05:56:24;;;;;;;865.40;798.00;;;11.30;99.90;;;;;;4978316;28;20459;-83
2022/10/08 05:58:51;;;;;;;869.13;800.17;;;11.20;99.90;;;;;;4968492;28;20487;-83
2022/10/08 06:01:20;;;;;;;858.40;789.70;;;11.10;99.90;;;;;;4980392;28;20455;-84
2022/10/08 06:03:50;;;;;;;848.73;780.57;;;11.20;99.90;;;;;;4979948;28;20817;-81
2022/10/08 06:06:17;;;;;;;853.67;786.50;;;11.00;99.90;;;;;;4977301;28;20451;-82
2022/10/08 06:08:44;;;;;;;852.63;783.20;;;11.10;99.90;;;;;;4979869;28;20475;-82
2022/10/08 06:11:10;;;;;;;834.70;764.10;;;11.00;99.90;;;;;;4979716;28;20459;-82
2022/10/08 06:13:37;;;;;;;841.17;770.87;;;11.10;99.90;;;;;;4977592;28;20451;-82
2022/10/08 06:16:06;;;;;;;831.60;761.93;;;11.10;99.90;;;;;;4978503;28;20471;-82
2022/10/08 06:18:36;;;;;;;821.83;754.33;;;11.20;99.90;;;;;;4978866;28;20486;-81
2022/10/08 06:21:06;;;;;;;832.07;765.13;;;11.30;99.90;;;;;;4978021;28;20459;-81
2022/10/08 06:23:33;;;;;;;834.93;767.67;;;11.50;99.90;;;;;;4980023;28;20455;-81
2022/10/08 06:26:02;;;;;;;844.80;778.93;;;11.50;99.90;;;;;;4978473;28;20838;-82
2022/10/08 06:28:29;;;;;;;841.43;780.23;;;11.60;99.90;;;;;;4977218;28;20513;-82
2022/10/08 06:30:56;;;;;;;837.43;777.87;;;11.60;99.90;;;;;;4978522;28;20455;-81
2022/10/08 06:33:22;;;;;;;847.90;785.57;;;11.60;99.90;;;;;;4978550;28;20953;-82
2022/10/08 06:35:49;;;;;;;844.60;783.40;;;11.60;99.90;;;;;;4978081;28;20462;-82
2022/10/08 06:38:18;;;;;;;842.37;781.57;;;11.70;99.90;;;;;;4977790;28;20475;-82
2022/10/08 06:40:45;;;;;;;839.23;781.40;;;11.70;99.90;;;;;;4978338;28;20460;-82
2022/10/08 06:43:13;;;;;;;835.07;778.03;;;11.80;99.90;;;;;;4977987;28;20459;-81
2022/10/08 06:45:40;;;;;;;851.90;792.30;;;11.90;99.90;;;;;;4977410;28;20940;-82
2022/10/08 06:48:07;;;;;;;852.33;796.03;;;12.00;99.90;;;;;;4978269;28;20453;-82
2022/10/08 06:50:35;;;;;;;834.87;782.67;;;12.20;99.90;;;;;;4978371;28;20470;-83
2022/10/08 06:53:03;;;;;;;855.43;801.17;;;12.20;99.90;;;;;;4962612;28;20454;-83
2022/10/08 06:55:32;;;;;;;839.93;788.70;;;12.40;99.90;;;;;;4977171;28;20455;-81
2022/10/08 06:57:58;;;;;;;773.53;731.27;;;12.60;99.90;;;;;;4977910;28;20546;-82
2022/10/08 07:00:25;;;;;;;755.87;716.17;;;12.70;99.90;;;;;;4978232;28;20455;-82
2022/10/08 07:02:52;;;;;;;729.40;692.07;;;12.80;99.90;;;;;;4977447;28;20952;-82
2022/10/08 07:05:19;;;;;;;723.33;687.27;;;12.70;99.90;;;;;;4977929;28;20455;-82
2022/10/08 07:07:46;;;;;;;703.50;670.00;;;12.60;99.90;;;;;;4978470;28;20458;-82
2022/10/08 07:10:13;;;;;;;699.33;665.90;;;12.50;99.90;;;;;;4978101;28;20995;-83
2022/10/08 07:12:41;;;;;;;678.07;646.60;;;12.50;99.90;;;;;;4977694;28;20458;-82
2022/10/08 07:15:09;;;;;;;712.20;677.30;;;12.60;99.90;;;;;;4978459;28;20458;-84
2022/10/08 07:17:36;;;;;;;658.47;627.90;;;12.80;99.90;;;;;;4978745;28;20542;-83
2022/10/08 07:20:03;;;;;;;659.47;630.17;;;12.70;99.90;;;;;;4979598;28;20482;-83
2022/10/08 07:22:30;;;;;;;658.13;628.23;;;12.70;99.90;;;;;;4980290;28;20463;-83
2022/10/08 07:25:00;;;;;;;648.47;619.10;;;12.60;99.90;;;;;;4978395;28;20459;-82
2022/10/08 07:27:27;;;;;;;689.60;655.93;;;12.70;99.90;;;;;;4978895;28;20570;-84
2022/10/08 07:29:55;;;;;;;679.63;647.63;;;12.80;99.90;;;;;;4981726;28;20471;-83
2022/10/08 07:32:21;;;;;;;649.63;621.27;;;12.80;99.90;;;;;;4981643;28;20990;-83
2022/10/08 07:34:48;;;;;;;704.77;670.90;;;12.70;99.90;;;;;;4983070;28;20458;-83
2022/10/08 07:37:15;;;;;;;629.70;602.00;;;12.70;99.90;;;;;;4981815;28;20477;-82
2022/10/08 07:39:41;;;;;;;636.20;608.63;;;12.70;99.90;;;;;;4980993;28;20493;-83
2022/10/08 07:42:08;;;;;;;636.23;608.77;;;12.70;99.90;;;;;;4982045;28;20839;-83
2022/10/08 07:44:35;;;;;;;613.10;587.50;;;12.80;99.90;;;;;;4979891;28;20459;-84
2022/10/08 07:47:03;;;;;;;623.60;597.23;;;12.70;99.90;;;;;;4979334;28;20450;-83
2022/10/08 07:49:29;;;;;;;640.57;613.77;;;12.70;99.90;;;;;;4980352;28;20482;-84
2022/10/08 07:51:59;;;;;;;679.50;647.40;;;12.60;99.90;;;;;;4980094;28;20451;-84
2022/10/08 07:54:26;;;;;;;679.90;648.40;;;12.70;99.90;;;;;;4983682;28;20455;-84
2022/10/08 07:56:53;;;;;;;712.33;676.43;;;12.70;99.90;;;;;;4979841;28;20455;-86
2022/10/08 07:59:19;;;;;;;650.90;618.37;;;12.90;99.90;;;;;;4979306;28;20485;-84
2022/10/08 08:01:46;;;;;;;564.47;538.93;;;13.20;99.90;;;;;;4977869;28;20454;-84
2022/10/08 08:04:15;;;;;;;217.17;207.70;;;13.40;99.90;;;;;;4979501;28;20470;-83
2022/10/08 08:06:44;;;;;;;112.33;106.80;;;13.40;99.90;;;;;;4964223;28;20462;-84
2022/10/08 08:09:13;;;;;;;132.80;127.20;;;13.40;99.90;;;;;;4980097;28;20478;-84
2022/10/08 08:11:39;;;;;;;271.70;262.20;;;13.30;99.90;;;;;;4983707;28;20463;-83
2022/10/08 08:14:07;;;;;;;159.70;153.10;;;13.50;99.90;;;;;;4984665;28;20451;-83
2022/10/08 08:16:33;;;;;;;171.63;164.73;;;13.50;99.90;;;;;;4984834;28;20514;-84
2022/10/08 08:19:02;;;;;;;134.23;127.90;;;13.50;99.90;;;;;;4983266;28;20483;-84
2022/10/08 08:21:32;;;;;;;99.47;94.77;;;13.50;99.90;;;;;;4984941;28;20451;-84
2022/10/08 08:24:03;;;;;;;118.10;112.80;;;13.70;99.90;;;;;;4986831;28;20465;-84
2022/10/08 08:26:32;;;;;;;108.17;103.17;;;13.80;99.90;;;;;;4987091;28;20459;-84
2022/10/08 08:29:01;;;;;;;47.43;43.70;;;14.00;99.90;;;;;;4986876;28;20470;-84
2022/10/08 08:31:29;;;;;;;31.67;28.77;;;14.00;99.90;;;;;;4986882;28;20465;-84
2022/10/08 08:33:58;;;;;;;36.57;33.93;;;13.90;99.90;;;;;;4984449;28;20454;-84
2022/10/08 08:36:27;;;;;;;23.10;17.37;;;14.00;99.90;;;;;;4985053;28;20465;-83
2022/10/08 08:38:56;;;;;;;50.57;46.83;;;13.90;99.90;;;;;;4984437;28;20479;-84
2022/10/08 08:41:42;;;;;;;23.73;21.60;;;14.20;99.90;;;;;;4985089;28;20494;-84
2022/10/08 08:44:12;;;;;;;19.70;15.50;;;14.30;99.90;;;;;;4974221;28;20459;-84
2022/10/08 08:46:43;;;;;;;15.70;9.17;;;14.30;99.90;;;;;;4987178;28;20454;-84
2022/10/08 08:49:18;;;;;;;24.00;9.93;;;14.50;99.90;;;;;;4988485;28;20474;-84
2022/10/08 08:51:45;;;;;;;19.33;9.70;;;14.70;99.90;;;;;;4989884;28;20461;-84
2022/10/08 08:54:16;;;;;;;21.93;10.40;;;14.80;99.90;;;;;;4987716;28;20463;-83
2022/10/08 08:56:43;;;;;;;11.87;8.67;;;15.30;99.90;;;;;;4988650;28;20457;-84
2022/10/08 08:59:23;;;;;;;17.57;7.83;;;15.70;98.80;;;;;;4988703;28;20486;-84
2022/10/08 09:01:53;;;;;;;15.90;8.73;;;16.00;99.10;;;;;;4989923;28;20455;-84
2022/10/08 09:04:26;;;;;;;17.23;7.20;;;15.90;96.20;;;;;;4990189;28;20457;-84
2022/10/08 09:06:55;;;;;;;19.87;6.40;;;15.90;93.40;;;;;;4987149;28;20468;-84
2022/10/08 09:09:29;;;;;;;23.20;7.50;;;15.60;94.50;;;;;;4986542;28;20477;-84
2022/10/08 09:11:57;;;;;;;23.17;8.40;;;15.70;94.50;;;;;;4988430;28;20495;-84
2022/10/08 09:14:34;;;;;;;15.50;7.90;;;16.00;94.10;;;;;;4989281;28;20489;-83
2022/10/08 09:17:09;;;;;;;16.50;6.23;;;16.40;93.30;;;;;;4990690;28;20457;-84
2022/10/08 09:19:37;;;;;;;14.83;6.97;;;16.50;93.00;;;;;;4992680;28;20479;-86
2022/10/08 09:22:16;;;;;;;17.83;7.10;;;16.90;89.20;;;;;;4988632;28;20463;-85
2022/10/08 09:24:44;;;;;;;12.40;6.33;;;17.10;90.50;;;;;;4996581;28;20467;-86
2022/10/08 09:27:18;;;;;;;13.20;5.87;;;17.30;88.40;;;;;;4997238;28;20945;-85
2022/10/08 09:29:45;;;;;;;9.53;5.30;;;17.20;87.50;;;;;;5000537;28;20475;-85
2022/10/08 09:32:16;;;;;;;13.17;4.50;;;17.10;83.40;;;;;;4995546;28;20451;-85
2022/10/08 09:34:44;;;;;;;12.13;5.27;;;16.90;83.20;;;;;;4993699;28;20464;-83
2022/10/08 09:37:24;;;;;;;12.67;4.53;;;16.70;85.00;;;;;;4992047;28;20456;-85
2022/10/08 09:40:21;;;;;;;13.40;4.27;;;16.90;85.30;;;;;;4991603;28;20474;-85
2022/10/08 09:43:10;;;;;;;16.60;5.53;;;16.90;83.20;;;;;;4994452;28;20478;-84
2022/10/08 09:45:40;;;;;;;9.47;5.40;;;16.80;84.50;;;;;;4992718;28;20880;-85
2022/10/08 09:48:18;;;;;;;10.37;3.90;;;16.50;84.00;;;;;;4990986;28;20451;-85
2022/10/08 09:51:01;;;;;;;11.60;3.87;;;15.90;86.10;;;;;;4987231;28;20456;-83
2022/10/08 09:53:34;;;;;;;11.63;5.30;;;15.60;86.30;;;;;;4989449;28;20454;-84
2022/10/08 09:56:05;;;;;;;18.40;5.33;;;15.40;89.60;;;;;;4990192;28;20202;-84
2022/10/08 09:58:34;;;;;;;14.33;5.73;;;15.20;87.50;;;;;;4990194;28;20482;-84
2022/10/08 10:01:06;;;;;;;15.53;7.90;;;15.50;87.90;;;;;;4990738;28;20453;-84
2022/10/08 10:03:36;;;;;;;10.47;5.70;;;15.80;85.40;;;;;;4990444;28;20455;-83
2022/10/08 10:06:03;;;;;;;15.57;5.80;;;16.50;86.40;;;;;;4990536;28;20454;-84
2022/10/08 10:08:47;;;;;;;14.43;4.43;;;16.70;83.10;;;;;;4989763;28;21032;-84
2022/10/08 10:11:28;;;;;;;7.87;3.30;;;16.50;81.50;;;;;;4990669;28;20463;-84
2022/10/08 10:13:59;;;;;;;8.40;3.90;;;15.70;78.50;;;;;;4990326;28;20458;-84
2022/10/08 10:16:31;;;;;;;10.47;3.90;;;16.00;83.60;;;;;;4990621;28;20461;-84
2022/10/08 10:19:00;;;;;;;8.40;4.10;;;16.20;82.60;;;;;;4991471;28;20479;-84
2022/10/08 10:21:36;;;;;;;14.47;5.07;;;15.90;80.40;;;;;;4992708;28;20448;-84
2022/10/08 10:24:29;;;;;;;12.30;4.90;;;16.30;82.70;;;;;;4993159;28;20484;-84
2022/10/08 10:27:03;;;;;;;13.93;5.17;;;17.00;78.50;;;;;;4991039;28;20453;-84
2022/10/08 10:29:40;;;;;;;12.53;3.80;;;17.80;74.30;;;;;;4993829;28;20471;-84
2022/10/08 10:32:12;;;;;;;8.87;3.20;;;18.30;68.50;;;;;;4992698;28;20457;-84
2022/10/08 10:34:42;;;;;;;10.73;3.50;;;18.70;63.00;;;;;;4991170;28;20470;-84
2022/10/08 10:37:15;;;;;;;10.97;3.57;;;18.60;64.00;;;;;;4992170;28;20466;-84
2022/10/08 10:39:49;;;;;;;11.07;3.47;;;18.80;65.40;;;;;;4993060;28;20485;-84
2022/10/08 10:42:20;;;;;;;12.00;2.73;;;19.20;62.60;;;;;;4992441;28;20460;-84
2022/10/08 10:44:53;;;;;;;8.07;2.63;;;20.00;58.30;;;;;;4993024;28;20482;-84
2022/10/08 10:47:22;;;;;;;7.60;2.60;;;19.90;58.40;;;;;;4992426;28;20464;-84
2022/10/08 10:49:50;;;;;;;11.17;2.40;;;19.20;60.20;;;;;;4992151;28;20474;-85
2022/10/08 10:52:42;;;;;;;7.03;2.40;;;17.80;59.80;;;;;;4988958;28;20451;-84
2022/10/08 10:55:20;;;;;;;6.80;3.27;;;16.70;66.00;;;;;;4990285;28;20463;-84
2022/10/08 10:57:59;;;;;;;8.40;2.37;;;15.80;66.30;;;;;;4990090;28;20464;-84
2022/10/08 11:00:30;;;;;;;9.00;2.40;;;15.60;68.40;;;;;;4991681;28;20480;-84
2022/10/08 11:03:01;;;;;;;7.67;2.20;;;15.40;67.60;;;;;;4989418;28;20458;-83
2022/10/08 11:05:32;;;;;;;7.43;2.60;;;15.50;70.10;;;;;;4990663;28;20469;-83
2022/10/08 11:08:12;;;;;;;5.60;2.20;;;16.40;66.50;;;;;;4989642;28;20934;-83
2022/10/08 11:10:53;;;;;;;8.30;2.10;;;17.50;62.40;;;;;;4991482;28;20442;-84
2022/10/08 11:13:35;;;;;;;8.73;2.10;;;18.00;58.40;;;;;;4992241;28;20518;-85
2022/10/08 11:16:14;;;;;;;9.50;2.23;;;18.70;56.10;;;;;;4987221;28;20462;-83
2022/10/08 11:18:49;;;;;;;7.47;2.20;;;19.30;56.00;;;;;;4992906;28;20484;-85
2022/10/08 11:21:34;;;;;;;14.10;2.33;;;20.30;50.90;;;;;;4993482;28;20459;-85
2022/10/08 11:24:22;;;;;;;10.60;3.87;;;20.00;48.40;;;;;;4990836;28;20457;-83
2022/10/08 11:26:55;;;;;;;6.70;1.90;;;19.00;47.40;;;;;;4991704;28;20457;-83
2022/10/08 11:29:31;;;;;;;6.63;1.63;;;17.00;50.40;;;;;;4990502;28;20478;-86
2022/10/08 11:31:58;;;;;;;9.67;1.47;;;16.10;55.00;;;;;;4992259;28;20452;-84
2022/10/08 11:34:30;;;;;;;6.30;1.37;;;15.50;55.20;;;;;;4988873;28;20465;-82
2022/10/08 11:37:06;;;;;;;11.07;3.00;;;16.00;57.70;;;;;;4990549;28;20469;-83
2022/10/08 11:39:42;;;;;;;11.67;2.80;;;16.60;52.00;;;;;;4990807;28;20503;-84
2022/10/08 11:42:16;;;;;;;11.50;1.77;;;17.50;50.10;;;;;;4990416;28;20459;-84
2022/10/08 11:44:45;;;;;;;8.63;1.63;;;17.40;49.00;;;;;;4984999;28;20459;-85
2022/10/08 11:47:52;;;;;;;5.97;1.37;;;18.00;50.00;;;;;;4983334;28;20465;-84
2022/10/08 11:50:28;;;;;;;6.90;1.60;;;18.30;37.50;;;;;;4981780;28;20540;-83
2022/10/08 11:52:59;;;;;;;8.10;1.63;;;18.60;40.90;;;;;;4981002;28;20840;-84
2022/10/08 11:55:29;;;;;;;10.30;1.73;;;19.00;36.40;;;;;;4978628;28;20970;-83
2022/10/08 11:57:58;;;;;;;13.20;2.00;;;19.20;37.50;;;;;;4980778;28;20807;-83
2022/10/08 12:00:41;;;;;;;6.67;1.10;;;18.80;37.20;;;;;;4981123;28;20480;-83
2022/10/08 12:03:21;;;;;;;12.37;1.40;;;18.70;34.10;;;;;;4978551;28;20460;-83
2022/10/08 12:05:51;;;;;;;5.80;1.50;;;19.00;31.90;;;;;;4980010;28;20451;-83
2022/10/08 12:08:53;;;;;;;6.57;1.40;;;19.30;34.30;;;;;;4982172;28;20539;-84
2022/10/08 12:11:51;;;;;;;9.17;1.40;;;19.30;34.60;;;;;;4979145;28;20452;-84
2022/10/08 12:14:31;;;;;;;5.80;1.37;;;19.50;34.60;;;;;;4983189;28;20458;-83
2022/10/08 12:17:10;;;;;;;8.30;1.43;;;19.60;35.00;;;;;;4979043;28;20466;-83
2022/10/08 12:19:45;;;;;;;38.97;4.90;;;19.10;33.80;;;;;;4980708;28;20586;-83
2022/10/08 12:22:43;;;;;;;8.57;1.73;;;19.50;34.80;;;;;;4978497;28;20843;-85
2022/10/08 12:25:35;;;;;;;10.57;1.57;;;20.00;30.60;;;;;;4973952;28;20446;-83
2022/10/08 12:29:00;;;;;;;6.73;1.43;;;20.20;29.30;;;;;;4982624;28;20466;-86
2022/10/08 12:31:30;;;;;;;7.07;1.27;;;20.20;27.90;;;;;;4940769;29;20463;-85
2022/10/08 12:34:01;;;;;;;12.27;1.83;;;20.80;27.60;;;;;;4957068;28;20466;-84
2022/10/08 12:36:36;;;;;;;6.00;1.37;;;20.80;26.60;;;;;;4961046;28;20465;-84
2022/10/08 12:39:04;;;;;;;8.40;2.10;;;20.80;25.70;;;;;;4962525;28;20494;-85
2022/10/08 12:42:15;;;;;;;6.03;1.67;;;20.70;23.90;;;;;;4963559;28;20483;-85
2022/10/08 12:45:00;;;;;;;10.70;2.10;;;20.90;26.30;;;;;;4961073;28;20450;-84
2022/10/08 12:47:39;;;;;;;13.80;1.87;;;20.60;26.50;;;;;;4982667;28;20503;-85